createdAt,value
2023-02-25T00:01:36.233Z,66.89
2023-02-25T00:04:02.715Z,65.91
2023-02-25T00:06:29.254Z,65.78
2023-02-25T00:08:56.004Z,66.16
2023-02-25T00:11:25.725Z,66.21
2023-02-25T00:13:52.658Z,66.80
2023-02-25T00:16:22.912Z,66.41
2023-02-25T00:18:58.437Z,66.43
2023-02-25T00:21:29.145Z,66.88
2023-02-25T00:24:00.114Z,66.92
2023-02-25T00:26:31.062Z,67.92
2023-02-25T00:28:58.001Z,66.85
2023-02-25T00:31:25.909Z,66.34
2023-02-25T00:33:53.590Z,65.79
2023-02-25T00:36:26.248Z,66.64
2023-02-25T00:38:57.139Z,66.30
2023-02-25T00:41:27.957Z,66.36
2023-02-25T00:44:00.645Z,66.12
2023-02-25T00:46:29.352Z,65.88
2023-02-25T00:48:55.925Z,65.90
2023-02-25T00:51:26.392Z,64.96
2023-02-25T00:53:55.748Z,64.89
2023-02-25T00:56:24.688Z,65.53
2023-02-25T00:58:53.050Z,65.47
2023-02-25T01:01:30.249Z,65.54
2023-02-25T01:03:58.324Z,66.23
2023-02-25T01:06:27.782Z,66.66
2023-02-25T01:08:54.876Z,66.50
2023-02-25T01:11:29.757Z,66.52
2023-02-25T01:14:03.944Z,66.36
2023-02-25T01:16:32.652Z,65.81
2023-02-25T01:19:05.936Z,65.82
2023-02-25T01:21:38.077Z,66.58
2023-02-25T01:24:19.632Z,66.83
2023-02-25T01:26:48.350Z,67.01
2023-02-25T01:29:19.045Z,66.32
2023-02-25T01:31:46.414Z,66.76
2023-02-25T01:34:17.607Z,66.60
2023-02-25T01:36:45.694Z,65.45
2023-02-25T01:39:15.837Z,65.70
2023-02-25T01:41:46.261Z,66.38
2023-02-25T01:44:17.683Z,66.02
2023-02-25T01:46:49.898Z,65.87
2023-02-25T01:49:29.959Z,66.18
2023-02-25T01:52:23.622Z,65.94
2023-02-25T01:54:58.135Z,66.01
2023-02-25T01:57:28.806Z,66.26
2023-02-25T01:59:55.598Z,66.27
2023-02-25T02:02:27.447Z,66.97
2023-02-25T02:04:56.008Z,66.06
2023-02-25T02:07:24.757Z,65.85
2023-02-25T02:09:58.290Z,65.59
2023-02-25T02:12:35.936Z,65.88
2023-02-25T02:15:10.950Z,66.51
2023-02-25T02:18:03.123Z,66.26
2023-02-25T02:21:10.365Z,66.57
2023-02-25T02:24:35.966Z,65.87
2023-02-25T02:27:10.683Z,66.75
2023-02-25T02:30:18.821Z,67.20
2023-02-25T02:33:17.501Z,67.29
2023-02-25T02:36:05.949Z,67.88
2023-02-25T02:39:18.140Z,67.70
2023-02-25T02:42:12.496Z,67.63
2023-02-25T02:45:01.509Z,67.70
2023-02-25T02:47:42.614Z,67.96
2023-02-25T02:50:29.443Z,67.76
2023-02-25T02:53:03.968Z,67.27
2023-02-25T02:55:41.082Z,67.03
2023-02-25T02:58:17.204Z,67.04
2023-02-25T03:00:50.433Z,67.59
2023-02-25T03:03:29.965Z,66.72
2023-02-25T03:05:56.458Z,67.49
2023-02-25T03:08:29.685Z,67.58
2023-02-25T03:10:56.411Z,67.27
2023-02-25T03:13:22.980Z,67.54
2023-02-25T03:15:52.595Z,67.09
2023-02-25T03:18:34.667Z,67.10
2023-02-25T03:21:12.786Z,66.83
2023-02-25T03:23:42.883Z,66.55
2023-02-25T03:26:23.144Z,66.24
2023-02-25T03:28:50.305Z,66.65
2023-02-25T03:31:41.036Z,66.98
2023-02-25T03:34:19.208Z,67.04
2023-02-25T03:36:59.740Z,66.99
2023-02-25T03:39:35.975Z,66.51
2023-02-25T03:42:05.777Z,66.78
2023-02-25T03:44:45.413Z,66.55
2023-02-25T03:47:14.184Z,66.20
2023-02-25T03:49:59.054Z,66.34
2023-02-25T03:52:27.949Z,66.74
2023-02-25T03:54:57.586Z,66.28
2023-02-25T03:57:33.640Z,66.32
2023-02-25T04:00:00.150Z,66.80
2023-02-25T04:02:33.628Z,67.13
2023-02-25T04:05:00.257Z,67.80
2023-02-25T04:07:27.083Z,67.60
2023-02-25T04:09:53.588Z,67.60
2023-02-25T04:12:20.096Z,68.12
2023-02-25T04:14:46.541Z,67.46
2023-02-25T04:17:12.986Z,68.04
2023-02-25T04:19:39.550Z,68.78
2023-02-25T04:22:08.021Z,68.50
2023-02-25T04:24:34.561Z,68.28
2023-02-25T04:27:02.464Z,68.26
2023-02-25T04:29:29.699Z,68.45
2023-02-25T04:31:56.823Z,68.66
2023-02-25T04:34:24.562Z,68.63
2023-02-25T04:36:51.938Z,68.46
2023-02-25T04:39:19.472Z,68.66
2023-02-25T04:41:46.010Z,68.88
2023-02-25T04:44:12.602Z,68.83
2023-02-25T04:46:43.099Z,67.89
2023-02-25T04:49:10.561Z,67.78
2023-02-25T04:51:39.263Z,68.43
2023-02-25T04:54:06.489Z,68.22
2023-02-25T04:56:32.975Z,68.68
2023-02-25T04:58:59.582Z,67.63
2023-02-25T05:01:26.160Z,68.36
2023-02-25T05:03:56.873Z,68.23
2023-02-25T05:06:25.804Z,68.25
2023-02-25T05:08:52.480Z,67.72
2023-02-25T05:11:20.416Z,67.42
2023-02-25T05:13:47.562Z,67.91
2023-02-25T05:16:16.952Z,67.96
2023-02-25T05:18:46.543Z,68.38
2023-02-25T05:21:17.787Z,68.50
2023-02-25T05:23:46.514Z,68.91
2023-02-25T05:26:16.353Z,69.68
2023-02-25T05:28:45.624Z,68.72
2023-02-25T05:31:13.099Z,69.12
2023-02-25T05:33:40.529Z,69.36
2023-02-25T05:36:13.156Z,69.02
2023-02-25T05:38:40.682Z,68.86
2023-02-25T05:41:09.742Z,68.89
2023-02-25T05:43:38.684Z,67.75
2023-02-25T05:46:11.687Z,67.14
2023-02-25T05:48:40.831Z,67.77
2023-02-25T05:51:13.026Z,68.22
2023-02-25T05:53:39.583Z,68.60
2023-02-25T05:56:09.668Z,68.42
2023-02-25T05:58:36.479Z,68.40
2023-02-25T06:01:15.856Z,67.95
2023-02-25T06:03:45.539Z,68.14
2023-02-25T06:06:15.319Z,68.15
2023-02-25T06:08:45.776Z,68.05
2023-02-25T06:11:18.674Z,68.09
2023-02-25T06:13:46.970Z,68.91
2023-02-25T06:16:14.625Z,69.47
2023-02-25T06:18:41.241Z,68.46
2023-02-25T06:21:11.203Z,68.16
2023-02-25T06:23:40.892Z,68.60
2023-02-25T06:26:09.946Z,68.88
2023-02-25T06:28:36.526Z,68.48
2023-02-25T06:31:06.490Z,68.45
2023-02-25T06:33:32.944Z,68.16
2023-02-25T06:35:59.440Z,68.03
2023-02-25T06:38:26.214Z,68.66
2023-02-25T06:40:52.825Z,68.18
2023-02-25T06:43:19.413Z,68.13
2023-02-25T06:45:46.013Z,68.64
2023-02-25T06:48:12.450Z,68.84
2023-02-25T06:50:40.738Z,68.14
2023-02-25T06:53:08.992Z,69.12
2023-02-25T06:55:38.542Z,69.18
2023-02-25T06:58:05.074Z,69.37
2023-02-25T07:00:31.688Z,69.43
2023-02-25T07:02:58.199Z,68.90
2023-02-25T07:05:24.738Z,69.04
2023-02-25T07:07:51.507Z,69.05
2023-02-25T07:10:17.995Z,69.24
2023-02-25T07:12:44.512Z,69.32
2023-02-25T07:15:11.179Z,69.03
2023-02-25T07:17:37.751Z,68.88
2023-02-25T07:20:04.663Z,69.88
2023-02-25T07:22:31.132Z,69.37
2023-02-25T07:24:57.665Z,69.69
2023-02-25T07:27:24.890Z,69.38
2023-02-25T07:29:51.406Z,69.48
2023-02-25T07:32:17.997Z,69.76
2023-02-25T07:34:44.678Z,68.99
2023-02-25T07:37:12.546Z,68.79
2023-02-25T07:39:39.074Z,68.60
2023-02-25T07:42:05.552Z,68.57
2023-02-25T07:44:32.011Z,68.69
2023-02-25T07:46:58.433Z,69.12
2023-02-25T07:49:24.889Z,69.30
2023-02-25T07:51:51.322Z,69.30
2023-02-25T07:54:21.014Z,68.64
2023-02-25T07:56:50.789Z,68.36
2023-02-25T07:59:18.832Z,67.93
2023-02-25T08:01:45.544Z,68.44
2023-02-25T08:04:12.154Z,69.02
2023-02-25T08:06:41.438Z,68.81
2023-02-25T08:09:12.154Z,69.01
2023-02-25T08:11:40.144Z,68.58
2023-02-25T08:14:07.125Z,68.84
2023-02-25T08:16:34.244Z,68.21
2023-02-25T08:19:01.826Z,67.98
2023-02-25T08:21:28.411Z,67.94
2023-02-25T08:23:54.975Z,68.18
2023-02-25T08:26:23.445Z,67.45
2023-02-25T08:28:51.572Z,67.38
2023-02-25T08:31:19.135Z,67.44
2023-02-25T08:33:49.322Z,67.41
2023-02-25T08:36:23.264Z,67.25
2023-02-25T08:38:51.697Z,67.42
2023-02-25T08:41:21.454Z,67.38
2023-02-25T08:43:56.672Z,67.48
2023-02-25T08:46:26.189Z,67.37
2023-02-25T08:48:54.438Z,67.01
2023-02-25T08:51:24.588Z,67.27
2023-02-25T08:53:52.180Z,67.12
2023-02-25T08:56:18.725Z,67.16
2023-02-25T08:58:45.367Z,66.93
2023-02-25T09:01:17.749Z,67.37
2023-02-25T09:03:54.169Z,67.15
2023-02-25T09:06:27.956Z,67.72
2023-02-25T09:08:56.634Z,66.97
2023-02-25T09:11:25.374Z,67.18
2023-02-25T09:13:54.591Z,67.49
2023-02-25T09:16:21.263Z,67.13
2023-02-25T09:18:50.317Z,67.57
2023-02-25T09:21:18.689Z,67.52
2023-02-25T09:23:46.826Z,67.33
2023-02-25T09:26:14.244Z,67.12
2023-02-25T09:28:40.766Z,67.48
2023-02-25T09:31:07.469Z,67.88
2023-02-25T09:33:36.451Z,66.67
2023-02-25T09:36:10.676Z,67.08
2023-02-25T09:38:39.360Z,65.43
2023-02-25T09:41:30.267Z,66.73
2023-02-25T09:44:15.267Z,65.96
2023-02-25T09:46:52.521Z,67.32
2023-02-25T09:49:58.259Z,67.50
2023-02-25T09:52:49.729Z,67.61
2023-02-25T09:55:23.846Z,67.34
2023-02-25T09:58:26.511Z,67.55
2023-02-25T10:01:06.036Z,67.88
2023-02-25T10:03:42.343Z,67.42
2023-02-25T10:06:24.648Z,67.58
2023-02-25T10:09:02.816Z,66.89
2023-02-25T10:11:46.180Z,66.73
2023-02-25T10:15:19.323Z,66.86
2023-02-25T10:18:13.905Z,66.62
2023-02-25T10:21:04.029Z,66.79
2023-02-25T10:23:42.544Z,66.71
2023-02-25T10:26:24.633Z,66.50
2023-02-25T10:29:00.306Z,67.29
2023-02-25T10:31:29.725Z,67.34
2023-02-25T10:34:03.948Z,66.91
2023-02-25T10:36:39.464Z,66.58
2023-02-25T10:39:06.308Z,65.65
2023-02-25T10:41:32.866Z,65.21
2023-02-25T10:43:59.337Z,65.49
2023-02-25T10:46:58.932Z,64.76
2023-02-25T10:49:28.750Z,64.70
2023-02-25T10:52:10.121Z,65.01
2023-02-25T10:54:53.194Z,64.48
2023-02-25T10:57:41.448Z,64.80
2023-02-25T11:00:28.973Z,64.83
2023-02-25T11:02:58.169Z,65.81
2023-02-25T11:05:42.062Z,64.72
2023-02-25T11:08:30.025Z,63.31
2023-02-25T11:11:21.842Z,64.32
2023-02-25T11:14:09.734Z,64.55
2023-02-25T11:16:40.343Z,63.75
2023-02-25T11:19:38.619Z,63.50
2023-02-25T11:22:18.243Z,63.96
2023-02-25T11:25:00.642Z,63.92
2023-02-25T11:27:41.600Z,63.95
2023-02-25T11:30:14.125Z,63.39
2023-02-25T11:32:48.921Z,63.09
2023-02-25T11:35:31.189Z,63.74
2023-02-25T11:38:12.282Z,64.69
2023-02-25T11:40:45.287Z,64.83
2023-02-25T11:46:24.997Z,64.09
2023-02-25T11:49:00.258Z,63.73
2023-02-25T11:51:47.006Z,62.57
2023-02-25T11:54:38.774Z,61.49
2023-02-25T11:57:14.678Z,62.82
2023-02-25T12:00:19.324Z,61.55
2023-02-25T12:03:13.325Z,62.36
2023-02-25T12:06:11.582Z,63.14
2023-02-25T12:08:59.683Z,62.38
2023-02-25T12:12:18.879Z,61.79
2023-02-25T12:15:23.932Z,62.52
2023-02-25T12:18:11.980Z,61.42
2023-02-25T12:21:16.694Z,60.96
2023-02-25T12:24:19.634Z,62.03
2023-02-25T12:27:21.803Z,62.02
2023-02-25T12:30:54.445Z,60.01
2023-02-25T12:34:11.298Z,60.77
2023-02-25T12:37:19.252Z,59.51
2023-02-25T12:40:38.270Z,57.61
2023-02-25T12:43:44.936Z,60.15
2023-02-25T12:46:27.634Z,58.51
2023-02-25T12:49:34.951Z,57.82
2023-02-25T12:52:42.575Z,57.88
2023-02-25T12:55:46.633Z,55.02
2023-02-25T12:58:30.316Z,55.00
2023-02-25T13:01:18.876Z,55.98
2023-02-25T13:04:42.496Z,56.00
2023-02-25T13:07:24.275Z,55.51
2023-02-25T13:10:20.177Z,56.15
2023-02-25T13:13:33.563Z,57.20
2023-02-25T13:16:31.818Z,57.47
2023-02-25T13:19:39.492Z,56.23
2023-02-25T13:22:43.278Z,55.86
2023-02-25T13:26:06.646Z,55.19
2023-02-25T13:29:12.793Z,55.27
2023-02-25T13:32:07.870Z,54.58
2023-02-25T13:34:52.036Z,55.26
2023-02-25T13:37:41.710Z,53.63
2023-02-25T13:40:37.258Z,54.66
2023-02-25T13:43:29.606Z,54.35
2023-02-25T13:46:37.695Z,52.83
2023-02-25T13:49:13.030Z,50.50
2023-02-25T13:52:09.507Z,52.08
2023-02-25T13:54:53.999Z,50.64
2023-02-25T13:58:02.933Z,50.95
2023-02-25T14:00:47.932Z,49.84
2023-02-25T14:03:53.799Z,49.91
2023-02-25T14:06:26.205Z,51.97
2023-02-25T14:09:21.925Z,49.99
2023-02-25T14:12:22.551Z,49.49
2023-02-25T14:15:19.951Z,48.45
2023-02-25T14:18:04.833Z,48.78
2023-02-25T14:20:44.094Z,48.20
2023-02-25T14:23:47.996Z,49.68
2023-02-25T14:26:35.632Z,49.95
2023-02-25T14:29:48.606Z,47.90
2023-02-25T14:32:47.600Z,49.13
2023-02-25T14:35:16.964Z,48.97
2023-02-25T14:38:07.410Z,48.50
2023-02-25T14:41:01.766Z,47.83
2023-02-25T14:43:33.790Z,47.64
2023-02-25T14:46:30.796Z,45.98
2023-02-25T14:49:38.288Z,45.78
2023-02-25T14:52:32.367Z,48.17
2023-02-25T14:55:29.241Z,48.42
2023-02-25T14:58:36.845Z,48.01
2023-02-25T15:01:39.832Z,46.84
2023-02-25T15:04:42.213Z,47.12
2023-02-25T15:07:29.944Z,46.46
2023-02-25T15:10:25.673Z,47.27
2023-02-25T15:14:04.318Z,46.81
2023-02-25T15:17:13.777Z,46.78
2023-02-25T15:20:38.666Z,47.43
2023-02-25T15:23:14.188Z,43.88
2023-02-25T15:26:21.763Z,43.51
2023-02-25T15:28:52.189Z,43.88
2023-02-25T15:31:33.773Z,43.29
2023-02-25T15:34:22.725Z,44.55
2023-02-25T15:36:51.783Z,44.63
2023-02-25T15:39:50.947Z,44.33
2023-02-25T15:42:49.650Z,42.81
2023-02-25T15:45:28.524Z,44.83
2023-02-25T15:48:06.993Z,45.50
2023-02-25T15:50:42.549Z,45.01
2023-02-25T15:53:20.853Z,45.77
2023-02-25T15:55:50.174Z,46.09
2023-02-25T15:58:25.546Z,44.07
2023-02-25T16:01:07.142Z,44.92
2023-02-25T16:03:36.411Z,45.64
2023-02-25T16:06:12.462Z,45.68
2023-02-25T16:08:49.344Z,44.54
2023-02-25T16:11:49.316Z,42.90
2023-02-25T16:14:26.145Z,44.01
2023-02-25T16:17:19.991Z,43.33
2023-02-25T16:19:59.110Z,43.50
2023-02-25T16:22:29.875Z,42.93
2023-02-25T16:25:01.622Z,43.19
2023-02-25T16:27:52.845Z,43.60
2023-02-25T16:30:44.434Z,42.47
2023-02-25T16:33:46.720Z,42.94
2023-02-25T16:36:39.578Z,42.86
2023-02-25T16:39:18.464Z,42.82
2023-02-25T16:41:45.341Z,44.37
2023-02-25T16:44:39.590Z,45.03
2023-02-25T16:47:30.502Z,45.75
2023-02-25T16:50:01.468Z,46.03
2023-02-25T16:52:40.274Z,46.76
2023-02-25T16:55:12.634Z,46.66
2023-02-25T16:57:39.482Z,46.62
2023-02-25T17:00:20.083Z,46.28
2023-02-25T17:02:52.532Z,46.98
2023-02-25T17:05:32.486Z,46.79
2023-02-25T17:08:14.664Z,46.71
2023-02-25T17:10:49.745Z,47.19
2023-02-25T17:13:26.257Z,47.02
2023-02-25T17:15:54.088Z,47.24
2023-02-25T17:18:53.411Z,47.49
2023-02-25T17:21:29.444Z,47.33
2023-02-25T17:24:00.259Z,48.04
2023-02-25T17:26:27.978Z,48.27
2023-02-25T17:29:00.236Z,48.03
2023-02-25T17:31:30.223Z,48.61
2023-02-25T17:34:01.091Z,49.08
2023-02-25T17:36:33.010Z,49.39
2023-02-25T17:39:20.618Z,49.02
2023-02-25T17:41:48.577Z,49.15
2023-02-25T17:44:37.566Z,48.68
2023-02-25T17:47:08.011Z,49.39
2023-02-25T17:49:37.583Z,49.24
2023-02-25T17:52:07.985Z,49.42
2023-02-25T17:54:38.090Z,49.21
2023-02-25T17:57:18.887Z,49.39
2023-02-25T18:00:00.331Z,48.98
2023-02-25T18:02:37.502Z,49.57
2023-02-25T18:05:12.852Z,49.32
2023-02-25T18:07:59.891Z,49.60
2023-02-25T18:10:26.270Z,50.26
2023-02-25T18:12:55.380Z,49.96
2023-02-25T18:15:30.831Z,49.91
2023-02-25T18:18:01.409Z,50.61
2023-02-25T18:20:38.304Z,50.96
2023-02-25T18:23:15.231Z,51.37
2023-02-25T18:25:45.252Z,51.92
2023-02-25T18:28:21.449Z,52.41
2023-02-25T18:30:50.644Z,52.58
2023-02-25T18:33:18.523Z,52.67
2023-02-25T18:35:48.080Z,53.55
2023-02-25T18:38:20.586Z,53.75
2023-02-25T18:40:49.970Z,54.26
2023-02-25T18:43:19.933Z,54.94
2023-02-25T18:45:47.216Z,54.80
2023-02-25T18:48:14.051Z,55.09
2023-02-25T18:50:44.269Z,54.78
2023-02-25T18:53:25.507Z,55.03
2023-02-25T18:55:54.303Z,55.22
2023-02-25T18:58:21.765Z,54.96
2023-02-25T19:00:53.624Z,55.52
2023-02-25T19:03:33.655Z,55.31
2023-02-25T19:06:00.935Z,55.49
2023-02-25T19:08:27.650Z,55.95
2023-02-25T19:10:54.468Z,55.76
2023-02-25T19:13:33.431Z,56.12
2023-02-25T19:16:00.238Z,56.23
2023-02-25T19:18:26.792Z,56.86
2023-02-25T19:20:53.316Z,56.39
2023-02-25T19:23:20.592Z,56.98
2023-02-25T19:25:54.979Z,56.98
2023-02-25T19:28:21.750Z,57.04
2023-02-25T19:30:48.818Z,57.20
2023-02-25T19:33:15.705Z,57.38
2023-02-25T19:35:43.894Z,57.70
2023-02-25T19:38:17.839Z,57.81
2023-02-25T19:40:46.488Z,57.45
2023-02-25T19:43:13.757Z,57.59
2023-02-25T19:45:41.440Z,57.57
2023-02-25T19:48:08.576Z,58.20
2023-02-25T19:50:36.893Z,58.11
2023-02-25T19:53:05.647Z,58.93
2023-02-25T19:55:33.223Z,58.74
2023-02-25T19:57:59.762Z,59.10
2023-02-25T20:00:26.876Z,58.95
2023-02-25T20:02:53.955Z,59.86
2023-02-25T20:05:22.603Z,59.83
2023-02-25T20:07:49.634Z,59.10
2023-02-25T20:10:19.917Z,59.29
2023-02-25T20:12:47.290Z,59.40
2023-02-25T20:15:15.510Z,60.03
2023-02-25T20:17:45.102Z,60.01
2023-02-25T20:20:14.562Z,59.77
2023-02-25T20:22:41.998Z,59.85
2023-02-25T20:25:10.394Z,60.52
2023-02-25T20:27:39.590Z,59.73
2023-02-25T20:30:07.338Z,60.04
2023-02-25T20:32:34.741Z,60.36
2023-02-25T20:35:02.179Z,60.21
2023-02-25T20:37:38.895Z,60.61
2023-02-25T20:40:08.252Z,61.79
2023-02-25T20:42:35.329Z,61.25
2023-02-25T20:45:02.384Z,60.73
2023-02-25T20:47:34.960Z,60.87
2023-02-25T20:50:02.484Z,60.62
2023-02-25T20:52:29.166Z,60.45
2023-02-25T20:54:56.285Z,60.84
2023-02-25T20:57:26.580Z,61.31
2023-02-25T20:59:54.248Z,60.93
2023-02-25T21:02:22.122Z,62.01
2023-02-25T21:04:49.058Z,61.51
2023-02-25T21:07:15.958Z,61.26
2023-02-25T21:09:42.447Z,61.01
2023-02-25T21:12:09.383Z,60.90
2023-02-25T21:14:35.953Z,61.25
2023-02-25T21:17:02.885Z,61.93
2023-02-25T21:19:29.461Z,61.23
2023-02-25T21:21:56.327Z,61.25
2023-02-25T21:24:23.536Z,61.55
2023-02-25T21:26:50.086Z,61.07
2023-02-25T21:29:16.644Z,61.29
2023-02-25T21:31:43.826Z,61.61
2023-02-25T21:34:13.912Z,62.04
2023-02-25T21:36:41.454Z,62.26
2023-02-25T21:39:09.630Z,62.42
2023-02-25T21:41:44.269Z,62.56
2023-02-25T21:44:12.295Z,63.17
2023-02-25T21:46:39.470Z,62.88
2023-02-25T21:49:06.044Z,62.67
2023-02-25T21:51:32.526Z,62.82
2023-02-25T21:54:01.278Z,62.46
2023-02-25T21:56:29.706Z,62.25
2023-02-25T21:59:03.196Z,62.46
2023-02-25T22:01:34.356Z,62.60
2023-02-25T22:04:01.586Z,63.09
2023-02-25T22:06:28.654Z,62.97
2023-02-25T22:08:55.672Z,63.35
2023-02-25T22:11:35.284Z,62.90
2023-02-25T22:14:05.536Z,62.35
2023-02-25T22:16:33.445Z,62.51
2023-02-25T22:19:00.454Z,62.35
2023-02-25T22:21:32.789Z,62.41
2023-02-25T22:24:03.339Z,62.42
2023-02-25T22:26:33.867Z,62.25
2023-02-25T22:29:06.605Z,62.84
2023-02-25T22:31:34.860Z,63.21
2023-02-25T22:34:02.819Z,63.55
2023-02-25T22:36:29.296Z,62.94
2023-02-25T22:38:56.535Z,62.68
2023-02-25T22:41:25.789Z,63.35
2023-02-25T22:43:52.884Z,63.07
2023-02-25T22:46:27.943Z,62.97
2023-02-25T22:48:55.812Z,63.30
2023-02-25T22:51:25.484Z,63.16
2023-02-25T22:53:53.240Z,63.09
2023-02-25T22:56:20.618Z,63.38
2023-02-25T22:58:47.457Z,63.41
2023-02-25T23:01:19.242Z,63.25
2023-02-25T23:03:47.865Z,63.90
2023-02-25T23:06:17.753Z,62.99
2023-02-25T23:08:44.877Z,63.62
2023-02-25T23:11:16.825Z,63.03
2023-02-25T23:13:47.414Z,63.37
2023-02-25T23:16:21.003Z,63.00
2023-02-25T23:18:49.048Z,62.50
2023-02-25T23:21:18.929Z,62.17
2023-02-25T23:23:51.810Z,62.17
2023-02-25T23:26:25.934Z,62.42
2023-02-25T23:28:58.559Z,62.02
2023-02-25T23:31:30.081Z,61.93
2023-02-25T23:34:03.165Z,61.07
2023-02-25T23:36:30.214Z,61.19
2023-02-25T23:39:01.076Z,60.87
2023-02-25T23:41:29.400Z,60.89
2023-02-25T23:44:00.446Z,60.43
2023-02-25T23:46:30.449Z,60.50
2023-02-25T23:49:00.301Z,60.26
2023-02-25T23:51:28.254Z,60.51
2023-02-25T23:53:58.695Z,59.72
2023-02-25T23:56:29.177Z,60.06
2023-02-25T23:58:56.262Z,60.63
